WEATHER DATA

YESTERDAY
Time Temp. Dewp. Hum. Wind dir Wind speed Wind gust Bar. 1h Prec. 24h Prec.
00:14 2.8 0.7 86 195 0.3 1.4 1032.9 0.0000 0.0000
00:25 2.8 0.7 86 210 0.8 1.7 1032.8 0.0000 0.0000
00:34 2.8 0.7 86 315 0.3 0.8 1032.8 0.0000 0.0000
00:49 2.7 0.9 88 209 0.3 0.8 1032.9 0.0000 0.0000
00:59 2.7 0.9 88 90 0.3 0.8 1032.8 0.0000 0.0000
01:09 2.6 1 89 90 0.3 1.1 1032.6 0.0000 0.0000
01:19 2.6 0.7 87 153 1.1 1.7 1032.4 0.0000 0.0000
01:29 2.6 0.7 87 132 0.8 1.7 1032.4 0.0000 0.0000
01:40 2.6 0.8 88 132 0.8 1.4 1032.2 0.0000 0.0000
01:50 2.5 0.9 89 153 1.4 2.5 1032.3 0.0000 0.0000
01:59 2.5 0.7 88 153 2.2 3.6 1032 0.0000 0.0000
02:10 2.5 0.9 89 153 2.2 3.3 1031.8 0.0000 0.0000
02:20 2.5 0.7 88 156 2.5 4.4 1031.7 0.0000 0.0000
02:30 2.6 0.7 87 161 2.2 3.3 1031.8 0.0000 0.0000
02:40 2.6 0.8 88 156 2.5 3.9 1031.7 0.0000 0.0000
02:50 2.6 0.8 88 161 2.2 3.9 1031.5 0.0000 0.0000
03:00 2.5 0.9 89 159 2.5 3.6 1031.4 0.0000 0.0000
03:10 2.5 0.7 88 162 2.2 3.6 1031.4 0.0000 0.0000
03:21 2.5 0.6 87 157 2.5 3.6 1031.4 0.0000 0.0000
03:31 2.5 0.6 87 165 2.2 3.3 1031.3 0.0000 0.0000
03:40 2.5 0.6 87 163 2.5 3.6 1031 0.0000 0.0000
03:50 2.5 0.7 88 168 2.2 3.9 1030.8 0.0000 0.0000
04:01 2.5 0.7 88 178 2.2 3.6 1030.6 0.0000 0.0000
04:11 2.6 0.8 88 186 1.7 3.6 1030.8 0.0000 0.0000
04:21 2.8 0.9 87 185 2.2 3.6 1030.7 0.0000 0.0000
04:30 2.8 0.9 87 186 1.7 3.6 1030.7 0.0000 0.0000
04:41 3 0.9 86 192 2.2 3.9 1030.8 0.0000 0.0000
04:51 3 0.9 86 205 1.7 3.6 1031.1 0.0000 0.0000
05:01 3 0.9 86 206 2.2 3.6 1031.4 0.0000 0.0000
05:12 3 0.9 86 198 2.2 3.6 1031.1 0.0000 0.0000
05:22 3.1 1 86 194 3.6 6.9 1030.6 0.0000 0.0000
05:31 3.1 1 86 194 2.5 4.4 1030.8 0.0000 0.0000
05:42 3.1 1.1 87 188 1.7 3.3 1030.7 0.0000 0.0000
05:52 3.1 1.1 87 196 2.8 4.4 1030.3 0.0000 0.0000
06:02 3.1 1.1 87 192 2.5 4.7 1030.4 0.0000 0.0000
06:12 3.2 1.2 87 198 2.5 3.9 1030.4 0.0000 0.0000
06:22 3.2 1.4 88 207 1.7 3.3 1030.7 0.0000 0.0000
06:32 3.2 1.4 88 206 1.4 2.8 1030.4 0.0000 0.0000
06:42 3.4 1.6 88 212 2.2 3.6 1030.5 0.0000 0.0000
06:52 3.4 1.8 89 207 2.2 3.6 1030.4 0.0000 0.0000
07:03 3.4 1.8 89 207 2.5 3.9 1030.2 0.0000 0.0000
07:12 3.5 1.9 89 211 2.2 3.9 1030.2 0.0000 0.0000
07:22 3.6 2 89 213 1.1 2.8 1030.2 0.0000 0.0000
07:33 3.7 2.1 89 315 0.3 1.4 1030.2 0.0000 0.0000
07:43 3.7 1.7 87 293 1.1 3.9 1030.4 0.0000 0.0000
07:53 3.7 1.6 86 283 1.4 3.9 1030.6 0.0000 0.0000
08:03 3.6 1.5 86 284 1.1 3.3 1030.8 0.0000 0.0000
08:13 3.6 1.5 86 270 1.1 2.8 1030.8 0.0000 0.0000
08:23 3.4 1.3 86 270 0.8 3.6 1031 0.0000 0.0000
08:33 3.4 1.3 86 257 1.1 3.3 1030.9 0.0000 0.0000
08:44 3.4 1.3 86 284 0.8 2.8 1030.8 0.0000 0.0000
08:54 3.4 1.4 87 270 0.3 1.7 1030.8 0.0000 0.0000
09:03 3.4 1.4 87 245 0.8 2.5 1030.8 0.0000 0.0000
09:13 3.4 1.4 87 251 0.8 3.3 1030.7 0.0000 0.0000
09:24 3.4 1.4 87 270 0.8 2.2 1030.6 0.0000 0.0000
09:34 3.4 1.4 87 270 0.3 2.2 1030.8 0.0000 0.0000
09:44 3.5 1.5 87 289 0.8 3.6 1030.8 0.0000 0.0000
09:54 3.6 1.6 87 282 0.8 1.7 1030.8 0.0000 0.0000
10:04 3.6 1.6 87 285 1.1 3.3 1030.8 0.0000 0.0000
10:14 3.7 1.7 87 270 1.1 2.2 1030.8 0.0000 0.0000
10:24 3.7 1.7 87 295 0.8 2.5 1030.8 0.0000 0.0000
10:35 3.7 1.7 87 294 0.8 2.2 1031 0.0000 0.0000
10:44 3.8 2 88 302 0.8 2.2 1030.8 0.0000 0.0000
10:54 3.8 2 88 292 0.8 1.7 1030.9 0.0000 0.0000
11:05 3.9 2.1 88 280 0.8 1.4 1031 0.0000 0.0000
11:15 4 2.2 88 307 0.3 1.1 1031 0.0000 0.0000
11:25 4.1 2.3 88 232 0.3 2.2 1030.9 0.0000 0.0000
11:34 4.2 2.4 88 240 0.3 1.4 1030.9 0.0000 0.0000
11:45 4.4 2.6 88 245 0.8 2.2 1030.8 0.0000 0.0000
11:55 4.7 2.7 87 235 1.1 3.6 1030.6 0.0000 0.0000
12:05 4.7 2.7 87 211 1.1 2.8 1030.6 0.0000 0.0000
12:15 4.8 2.8 87 210 0.8 2.2 1030.5 0.0000 0.0000
12:26 5.1 3 86 270 0.3 1.4 1030.4 0.0000 0.0000
12:35 5.3 3.2 86 255 1.1 2.2 1030.3 0.0000 0.0000
12:51 5.4 3.1 85 298 0.8 5 1030.4 0.0000 0.0000
13:02 5.5 3.2 85 315 0.8 2.5 1030.4 0.0000 0.0000
13:12 5.6 3.4 86 291 1.1 2.5 1030.4 0.0000 0.0000
13:21 5.6 3.4 86 270 0.8 2.2 1030.2 0.0000 0.0000
13:32 5.7 3.5 86 285 1.1 2.8 1030.1 0.0000 0.0000
13:42 5.8 3.6 86 270 0.3 2.5 1030.1 0.0000 0.0000
13:52 5.9 3.9 87 270 0.3 1.7 1029.9 0.0000 0.0000
14:02 5.9 3.9 87 225 0.8 3.9 1029.8 0.0000 0.0000
14:12 6 4 87 270 0.8 2.2 1029.7 0.0000 0.0000
14:22 6 4 87 270 0.8 2.5 1029.6 0.0000 0.0000
14:32 6.1 4.1 87 270 0.8 2.5 1029.8 0.0000 0.0000
14:42 6.1 4.1 87 293 1.1 4.4 1029.7 0.0000 0.0000
14:53 6.1 4.3 88 270 0.8 1.7 1029.6 0.0000 0.0000
15:02 6.2 4.4 88 219 1.1 3.6 1029.5 0.0000 0.0000
15:12 6.2 4.4 88 218 2.2 3.9 1029.5 0.0000 0.0000
15:23 6.2 4.2 87 213 2.2 4.7 1029.4 0.0000 0.0000
15:33 6.2 4.4 88 215 2.5 5 1029.2 0.0000 0.0000
15:43 6.3 4.3 87 213 2.5 3.9 1029.1 0.0000 0.0000
15:52 6.3 4.5 88 212 2.2 4.4 1028.9 0.0000 0.0000
16:03 6.3 4.3 87 216 1.7 3.9 1028.9 0.0000 0.0000
16:13 6.3 4.5 88 209 2.8 5.8 1028.8 0.0000 0.0000
16:23 6.3 4.5 88 211 2.5 5.3 1028.8 0.0000 0.0000
16:33 6.3 4.3 87 214 2.5 5.3 1028.7 0.0000 0.0000
16:43 6.1 4.3 88 216 2.2 5 1028.7 0.0000 0.0000
16:53 6 4.3 89 211 1.7 3.9 1028.7 0.0000 0.0000
17:03 5.9 4.2 89 221 1.4 3.9 1028.8 0.0000 0.0000
17:14 6 4.3 89 228 1.4 4.4 1028.7 0.0000 0.0000
17:24 6.1 4.4 89 223 1.4 4.7 1028.7 0.0000 0.0000
17:34 6.1 4.4 89 216 2.5 4.7 1028.6 0.0000 0.0000
17:44 6.2 4.5 89 218 2.2 4.7 1028.4 0.0000 0.0000
17:54 6.1 4.4 89 213 1.7 4.7 1028.4 0.0000 0.0000
18:04 6.1 4.4 89 215 2.5 4.7 1028.5 0.0000 0.0000
18:14 6 4.3 89 219 1.7 4.7 1028.5 0.0000 0.0000
18:25 6 4.3 89 210 2.2 5.8 1028.5 0.0000 0.0000
18:34 6 4.3 89 211 2.8 5.8 1028.4 0.0000 0.0000
18:44 6 4.2 88 216 3.9 6.1 1028.3 0.0000 0.0000
18:55 6 4.2 88 214 4.4 7.8 1028.3 0.0000 0.0000
19:05 5.8 4.1 89 209 3.3 6.4 1028.3 0.0000 0.0000
19:15 5.7 4 89 207 3.3 5.3 1028.3 0.0000 0.0000
19:24 5.7 4 89 209 3.3 6.1 1028.3 0.0000 0.0000
19:35 5.7 4 89 213 2.8 5 1028.1 0.0000 0.0000
19:45 5.7 4 89 211 3.6 5.8 1028 0.0000 0.0000
19:55 5.8 4.1 89 213 3.6 6.1 1027.8 0.0000 0.0000
20:05 5.8 4.1 89 209 3.9 7.5 1027.5 0.0000 0.0000
20:15 5.8 4.1 89 205 3.6 6.1 1027.5 0.0000 0.0000
20:25 5.7 4 89 206 4.4 8.3 1027.3 0.0000 0.0000
20:35 5.5 3.8 89 202 4.4 6.4 1027 0.0000 0.0000
20:46 5.3 3.8 90 208 3.9 8.3 1027 0.0000 0.0000
20:56 5.5 4 90 208 4.7 7.2 1026.9 0.0000 0.0000
21:06 5.4 3.9 90 208 4.7 7.5 1026.8 0.0000 0.0000
21:15 5.3 3.8 90 209 3.6 6.4 1026.7 0.0000 0.0000
21:26 5.2 3.7 90 205 4.4 7.8 1026.6 0.0000 0.0000
21:36 5.1 3.6 90 211 3.9 6.4 1026.8 0.0000 0.0000
21:46 5.3 3.8 90 209 3.9 6.1 1026.7 0.0000 0.0000
21:57 5.3 3.6 89 211 3.3 5.3 1026.6 0.0000 0.0000
22:06 5.4 3.7 89 211 3.6 7.2 1026.7 0.0000 0.0000
22:16 5.2 3.4 88 219 2.2 5.3 1026.6 0.0000 0.0000
22:26 5.8 4 88 213 3.3 6.1 1026.4 0.0000 0.0000
22:37 5.8 3.8 87 215 1.4 5 1026.4 0.0000 0.0000
22:47 5.8 3.8 87 223 1.7 5 1026.3 0.0000 0.0000
22:56 5.8 3.8 87 215 2.5 7.2 1026.3 0.0000 0.0000
23:07 5.8 3.8 87 210 2.2 8.3 1026.3 0.0000 0.0000
23:19 5.9 3.9 87 221 3.3 9.7 1025.9 0.0000 0.0000
23:29 5.9 3.9 87 215 3.3 7.5 1025.6 0.0000 0.0000
23:39 5.9 3.9 87 211 3.3 8.3 1025.6 0.0000 0.0000
23:49 6 4 87 217 4.4 7.2 1025.3 0.0000 0.0000

DAY STATISTIC

2022-01-26
TEMPERATURE
AVERAGE
4.5
HIGH
6.3
15:43
LOW
2.5
01:50
PRESSURE
AVERAGE
1029.7
HIGH
1032.9
00:14
LOW
1025.3
23:49
DEWPOINT
AVERAGE
2.6
HIGH
4.5
15:52
LOW
0.6
03:21
HUMIDITY
AVERAGE
88
HIGH
90
20:46
LOW
85
12:51
WIND SPEED
AVERAGE
1.9
HIGH
4.7
20:56
WIND GUST
AVERAGE
4.0
HIGH
9.7
23:19
WIND DIRECTION
PREVAILING
SW
50.7%
N
0.0
NE
0.0
E
1.4
SE
6.4
S
15.0
SW
50.7
W
19.3
NW
7.1
PRECIPITATION
RAIN HOUR
0.0
RAIN DAY
0.0
TEMPERATURE (°C)
LOW
2.5
HIGH
6.3
AVERAGE
4.5
PRESSURE (hpa)
LOW
1025.3
HIGH
1032.9
AVERAGE
1029.7
DEVICE